createdAt,value
2017-09-24T00:01:53.203Z,17.30
2017-09-24T00:04:20.868Z,17.40
2017-09-24T00:06:48.506Z,17.30
2017-09-24T00:09:16.901Z,17.30
2017-09-24T00:11:44.553Z,17.20
2017-09-24T00:14:12.962Z,17.30
2017-09-24T00:16:40.676Z,17.20
2017-09-24T00:19:08.316Z,17.30
2017-09-24T00:21:35.936Z,17.30
2017-09-24T00:24:03.585Z,17.20
2017-09-24T00:26:31.204Z,17.30
2017-09-24T00:28:59.594Z,17.30
2017-09-24T00:31:27.259Z,17.20
2017-09-24T00:33:54.877Z,17.20
2017-09-24T00:36:22.515Z,17.30
2017-09-24T00:38:50.178Z,17.20
2017-09-24T00:41:18.602Z,17.20
2017-09-24T00:43:46.293Z,17.20
2017-09-24T00:46:14.750Z,17.20
2017-09-24T00:48:42.406Z,17.10
2017-09-24T00:51:10.075Z,17.20
2017-09-24T00:53:37.701Z,17.20
2017-09-24T00:56:05.335Z,17.20
2017-09-24T00:58:32.995Z,17.20
2017-09-24T01:01:01.394Z,17.20
2017-09-24T01:03:29.035Z,17.10
2017-09-24T01:05:57.475Z,17.20
2017-09-24T01:08:25.092Z,17.20
2017-09-24T01:10:52.720Z,17.20
2017-09-24T01:13:20.387Z,17.20
2017-09-24T01:15:48.832Z,17.20
2017-09-24T01:18:16.479Z,17.20
2017-09-24T01:20:44.097Z,17.20
2017-09-24T01:23:12.541Z,17.20
2017-09-24T01:25:40.183Z,17.10
2017-09-24T01:28:07.866Z,17.20
2017-09-24T01:30:36.262Z,17.20
2017-09-24T01:33:03.892Z,17.10
2017-09-24T01:35:31.549Z,17.10
2017-09-24T01:37:59.215Z,17.10
2017-09-24T01:40:26.979Z,17.10
2017-09-24T01:42:54.656Z,17.10
2017-09-24T01:45:22.284Z,17.10
2017-09-24T01:47:49.986Z,17.10
2017-09-24T01:50:17.651Z,17.10
2017-09-24T01:52:45.286Z,17.10
2017-09-24T01:55:12.909Z,17.10
2017-09-24T01:57:40.590Z,17.10
2017-09-24T02:00:08.207Z,17.10
2017-09-24T02:02:35.832Z,17.00
2017-09-24T02:05:03.498Z,17.10
2017-09-24T02:07:31.130Z,17.10
2017-09-24T02:09:58.978Z,17.10
2017-09-24T02:12:27.423Z,17.10
2017-09-24T02:14:55.066Z,17.00
2017-09-24T02:17:22.714Z,17.00
2017-09-24T02:19:50.372Z,17.00
2017-09-24T02:22:17.988Z,17.00
2017-09-24T02:24:45.620Z,17.00
2017-09-24T02:27:13.291Z,17.00
2017-09-24T02:29:40.946Z,16.90
2017-09-24T02:32:08.582Z,17.00
2017-09-24T02:34:36.246Z,16.90
2017-09-24T02:37:03.893Z,17.00
2017-09-24T02:39:31.519Z,17.00
2017-09-24T02:41:59.214Z,16.90
2017-09-24T02:44:26.866Z,16.90
2017-09-24T02:46:54.502Z,16.90
2017-09-24T02:49:22.170Z,16.90
2017-09-24T02:51:50.548Z,16.90
2017-09-24T02:54:18.967Z,16.90
2017-09-24T02:56:46.579Z,16.90
2017-09-24T02:59:14.250Z,16.90
2017-09-24T03:01:42.640Z,16.90
2017-09-24T03:04:11.068Z,16.90
2017-09-24T03:06:38.691Z,16.90
2017-09-24T03:09:06.329Z,16.90
2017-09-24T03:11:34.736Z,16.90
2017-09-24T03:14:02.361Z,16.90
2017-09-24T03:16:30.024Z,16.90
2017-09-24T03:18:57.675Z,16.90
2017-09-24T03:21:25.354Z,16.90
2017-09-24T03:23:53.756Z,16.90
2017-09-24T03:26:21.413Z,16.90
2017-09-24T03:28:49.941Z,16.90
2017-09-24T03:31:17.579Z,16.80
2017-09-24T03:33:45.237Z,16.90
2017-09-24T03:36:12.872Z,16.90
2017-09-24T03:38:41.434Z,16.90
2017-09-24T03:41:09.905Z,16.90
2017-09-24T03:43:38.323Z,16.90
2017-09-24T03:46:06.722Z,16.90
2017-09-24T03:48:34.422Z,16.80
2017-09-24T03:51:02.078Z,16.90
2017-09-24T03:53:29.707Z,16.90
2017-09-24T03:55:57.369Z,16.90
2017-09-24T03:58:25.014Z,16.90
2017-09-24T04:00:52.643Z,16.90
2017-09-24T04:03:20.407Z,16.90
2017-09-24T04:05:48.042Z,16.90
2017-09-24T04:08:15.721Z,16.90
2017-09-24T04:10:43.501Z,16.90
2017-09-24T04:13:11.140Z,16.90
2017-09-24T04:15:38.896Z,16.80
2017-09-24T04:18:06.590Z,16.90
2017-09-24T04:20:34.326Z,16.80
2017-09-24T04:23:01.970Z,16.90
2017-09-24T04:25:29.598Z,16.90
2017-09-24T04:27:58.029Z,16.90
2017-09-24T04:30:25.664Z,16.80
2017-09-24T04:32:53.330Z,16.90
2017-09-24T04:35:21.037Z,16.90
2017-09-24T04:37:48.705Z,16.80
2017-09-24T04:40:17.109Z,16.90
2017-09-24T04:42:45.537Z,16.90
2017-09-24T04:45:13.314Z,16.80
2017-09-24T04:47:40.978Z,16.90
2017-09-24T04:50:08.596Z,16.80
2017-09-24T04:52:36.220Z,16.80
2017-09-24T04:55:04.633Z,16.80
2017-09-24T04:57:32.256Z,16.80
2017-09-24T04:59:59.925Z,16.80
2017-09-24T05:02:28.324Z,16.80
2017-09-24T05:04:55.962Z,16.80
2017-09-24T05:07:24.396Z,16.80
2017-09-24T05:09:52.040Z,16.80
2017-09-24T05:12:19.759Z,16.80
2017-09-24T05:14:47.414Z,16.80
2017-09-24T05:17:15.176Z,16.80
2017-09-24T05:19:42.836Z,16.80
2017-09-24T05:22:10.506Z,16.80
2017-09-24T05:24:39.654Z,16.80
2017-09-24T05:27:07.322Z,16.80
2017-09-24T05:29:34.961Z,16.80
2017-09-24T05:32:02.598Z,16.80
2017-09-24T05:34:31.035Z,16.80
2017-09-24T05:36:58.664Z,16.80
2017-09-24T05:39:26.361Z,16.80
2017-09-24T05:41:54.126Z,16.80
2017-09-24T05:44:21.890Z,16.80
2017-09-24T05:46:49.551Z,16.80
2017-09-24T05:49:17.246Z,16.80
2017-09-24T05:51:44.978Z,16.80
2017-09-24T05:54:12.621Z,16.80
2017-09-24T05:56:40.283Z,16.80
2017-09-24T05:59:07.987Z,16.90
2017-09-24T06:01:35.660Z,16.80
2017-09-24T06:04:03.292Z,16.90
2017-09-24T06:06:30.973Z,16.90
2017-09-24T06:08:58.637Z,16.90
2017-09-24T06:11:26.294Z,16.90
2017-09-24T06:13:54.061Z,16.90
2017-09-24T06:16:21.688Z,16.90
2017-09-24T06:18:49.358Z,16.90
2017-09-24T06:21:17.538Z,16.90
2017-09-24T06:23:45.299Z,16.90
2017-09-24T06:26:12.976Z,16.90
2017-09-24T06:28:40.605Z,16.90
2017-09-24T06:31:08.307Z,17.00
2017-09-24T06:33:35.953Z,16.90
2017-09-24T06:36:03.720Z,16.90
2017-09-24T06:38:31.359Z,17.00
2017-09-24T06:40:59.013Z,16.90
2017-09-24T06:43:26.658Z,17.00
2017-09-24T06:45:54.355Z,17.00
2017-09-24T06:48:21.990Z,17.00
2017-09-24T06:50:49.679Z,17.00
2017-09-24T06:53:17.363Z,17.00
2017-09-24T06:55:44.992Z,17.00
2017-09-24T06:58:12.612Z,17.00
2017-09-24T07:00:41.043Z,17.00
2017-09-24T07:03:08.688Z,17.00
2017-09-24T07:05:36.351Z,17.00
2017-09-24T07:08:03.990Z,17.00
2017-09-24T07:10:31.722Z,17.00
2017-09-24T07:12:59.386Z,17.00
2017-09-24T07:15:27.119Z,17.10
2017-09-24T07:17:54.779Z,17.10
2017-09-24T07:20:22.404Z,17.10
2017-09-24T07:22:50.060Z,17.00
2017-09-24T07:25:18.451Z,17.00
2017-09-24T07:27:46.102Z,17.00
2017-09-24T07:30:14.488Z,17.00
2017-09-24T07:32:42.130Z,17.00
2017-09-24T07:35:10.559Z,17.00
2017-09-24T07:37:38.244Z,17.00
2017-09-24T07:40:05.911Z,17.00
2017-09-24T07:42:33.653Z,17.10
2017-09-24T07:45:01.324Z,17.00
2017-09-24T07:47:28.950Z,17.10
2017-09-24T07:49:56.608Z,17.00
2017-09-24T07:52:24.244Z,17.10
2017-09-24T07:54:52.782Z,17.10
2017-09-24T07:57:20.407Z,17.00
2017-09-24T07:59:48.127Z,17.10
2017-09-24T08:02:15.800Z,17.10
2017-09-24T08:04:43.438Z,17.20
2017-09-24T08:07:11.074Z,17.20
2017-09-24T08:09:38.716Z,17.20
2017-09-24T08:12:06.363Z,17.20
2017-09-24T08:14:34.820Z,17.20
2017-09-24T08:17:03.224Z,17.20
2017-09-24T08:19:31.662Z,17.20
2017-09-24T08:21:59.297Z,17.20
2017-09-24T08:24:26.931Z,17.20
2017-09-24T08:26:55.463Z,17.20
2017-09-24T08:29:23.088Z,17.20
2017-09-24T08:31:50.734Z,17.20
2017-09-24T08:34:19.139Z,17.20
2017-09-24T08:36:46.786Z,17.20
2017-09-24T08:39:14.422Z,17.20
2017-09-24T08:41:42.857Z,17.30
2017-09-24T08:44:10.494Z,17.20
2017-09-24T08:46:38.141Z,17.30
2017-09-24T08:49:06.533Z,17.40
2017-09-24T08:51:34.182Z,17.30
2017-09-24T08:54:01.849Z,17.40
2017-09-24T08:56:29.485Z,17.40
2017-09-24T08:58:57.589Z,17.40
2017-09-24T09:01:25.223Z,17.40
2017-09-24T09:03:53.637Z,17.50
2017-09-24T09:06:21.288Z,17.40
2017-09-24T09:08:48.912Z,17.50
2017-09-24T09:11:16.576Z,17.50
2017-09-24T09:13:44.251Z,17.50
2017-09-24T09:16:12.669Z,17.50
2017-09-24T09:18:40.302Z,17.50
2017-09-24T09:21:08.729Z,17.50
2017-09-24T09:23:36.354Z,17.50
2017-09-24T09:26:04.056Z,17.60
2017-09-24T09:28:31.733Z,17.60
2017-09-24T09:30:59.372Z,17.60
2017-09-24T09:33:27.033Z,17.60
2017-09-24T09:35:54.666Z,17.60
2017-09-24T09:38:22.338Z,17.60
2017-09-24T09:40:49.984Z,17.70
2017-09-24T09:46:32.781Z,17.80
2017-09-24T09:49:00.457Z,17.90
2017-09-24T09:51:28.084Z,17.90
2017-09-24T09:53:55.704Z,17.90
2017-09-24T09:56:23.358Z,17.90
2017-09-24T09:58:51.768Z,18.00
2017-09-24T10:01:19.415Z,17.90
2017-09-24T10:03:47.068Z,18.00
2017-09-24T10:06:14.715Z,18.00
2017-09-24T10:08:50.018Z,18.00
2017-09-24T10:11:17.640Z,18.00
2017-09-24T10:13:45.315Z,18.00
2017-09-24T10:16:12.956Z,18.10
2017-09-24T10:18:40.594Z,18.10
2017-09-24T10:21:08.298Z,18.10
2017-09-24T10:23:35.936Z,18.10
2017-09-24T10:26:03.589Z,18.10
2017-09-24T10:28:43.905Z,18.10
2017-09-24T10:31:11.694Z,18.10
2017-09-24T10:33:39.342Z,18.10
2017-09-24T10:36:07.020Z,18.10
2017-09-24T10:38:34.655Z,18.10
2017-09-24T10:41:02.463Z,18.10
2017-09-24T10:43:30.881Z,18.10
2017-09-24T10:45:58.500Z,18.10
2017-09-24T10:48:26.931Z,18.20
2017-09-24T10:50:54.557Z,18.10
2017-09-24T10:53:22.213Z,18.20
2017-09-24T10:55:50.602Z,18.20
2017-09-24T10:58:18.238Z,18.20
2017-09-24T11:00:45.900Z,18.30
2017-09-24T11:03:14.302Z,18.30
2017-09-24T11:05:41.959Z,18.20
2017-09-24T11:08:10.600Z,18.20
2017-09-24T11:10:38.475Z,18.20
2017-09-24T11:13:06.548Z,18.20
2017-09-24T11:15:34.512Z,18.20
2017-09-24T11:18:02.378Z,18.20
2017-09-24T11:20:30.240Z,18.20
2017-09-24T11:22:58.025Z,18.20
2017-09-24T11:25:27.157Z,18.30
2017-09-24T11:27:54.817Z,18.30
2017-09-24T11:30:22.519Z,18.30
2017-09-24T11:32:53.655Z,18.40
2017-09-24T11:35:21.496Z,18.40
2017-09-24T11:37:49.204Z,18.50
2017-09-24T11:40:16.875Z,18.60
2017-09-24T11:42:44.610Z,18.70
2017-09-24T11:45:12.241Z,18.70
2017-09-24T11:47:40.037Z,18.80
2017-09-24T11:50:07.685Z,19.00
2017-09-24T11:52:35.349Z,19.00
2017-09-24T11:55:02.990Z,19.00
2017-09-24T11:57:30.665Z,19.10
2017-09-24T11:59:58.289Z,19.10
2017-09-24T12:02:26.708Z,19.40
2017-09-24T12:04:54.333Z,19.30
2017-09-24T12:07:22.716Z,19.40
2017-09-24T12:09:51.138Z,19.40
2017-09-24T12:12:18.806Z,19.30
2017-09-24T12:14:46.473Z,19.50
2017-09-24T12:17:14.151Z,19.50
2017-09-24T12:19:41.893Z,19.60
2017-09-24T12:22:09.570Z,19.60
2017-09-24T12:24:37.325Z,19.70
2017-09-24T12:27:05.084Z,19.80
2017-09-24T12:29:32.754Z,19.90
2017-09-24T12:32:00.368Z,19.90
2017-09-24T12:34:28.091Z,20.00
2017-09-24T12:36:55.865Z,20.00
2017-09-24T12:39:23.622Z,20.00
2017-09-24T12:41:51.363Z,20.10
2017-09-24T12:44:19.016Z,20.20
2017-09-24T12:46:46.790Z,20.20
2017-09-24T12:49:14.475Z,20.30
2017-09-24T12:51:42.133Z,20.40
2017-09-24T12:54:09.774Z,20.50
2017-09-24T12:56:37.424Z,20.50
2017-09-24T12:59:05.065Z,20.60
2017-09-24T13:01:32.784Z,20.60
2017-09-24T13:04:00.415Z,20.70
2017-09-24T13:06:28.111Z,20.70
2017-09-24T13:08:55.773Z,20.80
2017-09-24T13:11:23.418Z,20.90
2017-09-24T13:13:51.093Z,20.90
2017-09-24T13:16:18.835Z,20.90
2017-09-24T13:18:46.482Z,20.90
2017-09-24T13:21:14.263Z,20.90
2017-09-24T13:23:41.924Z,21.00
2017-09-24T13:26:09.563Z,20.90
2017-09-24T13:28:37.267Z,20.90
2017-09-24T13:31:06.426Z,20.90
2017-09-24T13:33:34.136Z,20.90
2017-09-24T13:36:03.301Z,20.80
2017-09-24T13:38:30.991Z,20.80
2017-09-24T13:40:59.380Z,20.90
2017-09-24T13:43:27.043Z,20.90
2017-09-24T13:45:54.673Z,20.90
2017-09-24T13:48:22.324Z,21.00
2017-09-24T13:50:50.509Z,21.00
2017-09-24T13:53:18.290Z,21.00
2017-09-24T13:55:45.912Z,21.10
2017-09-24T13:58:13.569Z,21.10
2017-09-24T14:00:41.190Z,21.10
2017-09-24T14:03:09.654Z,21.20
2017-09-24T14:05:38.850Z,21.20
2017-09-24T14:08:07.413Z,21.20
2017-09-24T14:10:35.061Z,21.10
2017-09-24T14:13:02.754Z,21.20
2017-09-24T14:15:30.502Z,21.10
2017-09-24T14:17:58.153Z,21.20
2017-09-24T14:20:25.846Z,21.20
2017-09-24T14:22:53.486Z,21.20
2017-09-24T14:25:21.270Z,21.20
2017-09-24T14:27:48.911Z,21.20
2017-09-24T14:30:16.547Z,21.20
2017-09-24T14:32:44.189Z,21.20
2017-09-24T14:35:12.581Z,21.10
2017-09-24T14:37:40.295Z,21.10
2017-09-24T14:40:07.920Z,21.10
2017-09-24T14:42:35.564Z,21.10
2017-09-24T14:45:03.263Z,21.10
2017-09-24T14:47:30.945Z,21.10
2017-09-24T14:49:58.594Z,21.10
2017-09-24T14:52:26.265Z,21.10
2017-09-24T14:54:53.935Z,21.10
2017-09-24T14:57:21.578Z,21.20
2017-09-24T14:59:49.255Z,21.20
2017-09-24T15:02:16.889Z,21.30
2017-09-24T15:04:44.543Z,21.30
2017-09-24T15:07:12.179Z,21.40
2017-09-24T15:09:39.809Z,21.40
2017-09-24T15:12:08.252Z,21.30
2017-09-24T15:14:35.884Z,21.30
2017-09-24T15:17:03.597Z,21.30
2017-09-24T15:19:31.452Z,21.20
2017-09-24T15:21:59.131Z,21.10
2017-09-24T15:24:26.784Z,21.10
2017-09-24T15:26:54.641Z,21.00
2017-09-24T15:29:22.279Z,20.90
2017-09-24T15:31:49.985Z,20.90
2017-09-24T15:34:17.745Z,20.80
2017-09-24T15:36:45.599Z,20.70
2017-09-24T15:39:13.389Z,20.70
2017-09-24T15:41:41.008Z,20.60
2017-09-24T15:44:08.632Z,20.60
2017-09-24T15:46:37.099Z,20.50
2017-09-24T15:49:05.497Z,20.50
2017-09-24T15:51:33.943Z,20.50
2017-09-24T15:54:01.702Z,20.40
2017-09-24T15:56:29.355Z,20.50
2017-09-24T15:58:56.979Z,20.40
2017-09-24T16:01:24.700Z,20.40
2017-09-24T16:03:53.878Z,20.30
2017-09-24T16:06:21.534Z,20.30
2017-09-24T16:08:49.196Z,20.40
2017-09-24T16:11:16.816Z,20.30
2017-09-24T16:13:44.535Z,20.30
2017-09-24T16:16:12.292Z,20.30
2017-09-24T16:18:40.072Z,20.30
2017-09-24T16:21:09.253Z,20.20
2017-09-24T16:23:36.928Z,20.20
2017-09-24T16:26:04.698Z,20.20
2017-09-24T16:28:32.370Z,20.20
2017-09-24T16:31:00.030Z,20.10
2017-09-24T16:33:27.664Z,20.10
2017-09-24T16:35:55.340Z,20.10
2017-09-24T16:38:22.993Z,20.10
2017-09-24T16:40:50.764Z,20.10
2017-09-24T16:43:18.511Z,20.00
2017-09-24T16:45:46.136Z,20.00
2017-09-24T16:48:13.790Z,19.90
2017-09-24T16:50:41.461Z,19.90
2017-09-24T16:53:09.184Z,19.90
2017-09-24T16:55:37.610Z,19.90
2017-09-24T16:58:05.267Z,19.90
2017-09-24T17:00:32.963Z,19.90
2017-09-24T17:03:00.748Z,19.80
2017-09-24T17:05:28.387Z,19.80
2017-09-24T17:07:56.140Z,19.80
2017-09-24T17:10:24.039Z,19.80
2017-09-24T17:12:51.907Z,19.80
2017-09-24T17:15:19.765Z,19.70
2017-09-24T17:17:47.740Z,19.70
2017-09-24T17:20:15.599Z,19.70
2017-09-24T17:22:43.478Z,19.70
2017-09-24T17:25:11.342Z,19.70
2017-09-24T17:27:39.111Z,19.70
2017-09-24T17:30:06.973Z,19.60
2017-09-24T17:32:34.831Z,19.60
2017-09-24T17:35:02.706Z,19.60
2017-09-24T17:37:31.398Z,19.50
2017-09-24T17:39:59.367Z,19.50
2017-09-24T17:42:27.223Z,19.50
2017-09-24T17:44:55.095Z,19.50
2017-09-24T17:47:23.065Z,19.40
2017-09-24T17:49:50.956Z,19.30
2017-09-24T17:52:19.713Z,19.20
2017-09-24T17:54:47.592Z,19.20
2017-09-24T17:57:16.268Z,19.20
2017-09-24T17:59:43.917Z,19.10
2017-09-24T18:02:11.600Z,19.10
2017-09-24T18:04:39.217Z,19.10
2017-09-24T18:07:06.889Z,19.10
2017-09-24T18:09:34.514Z,19.00
2017-09-24T18:12:02.945Z,19.00
2017-09-24T18:14:30.580Z,18.90
2017-09-24T18:16:58.233Z,18.90
2017-09-24T18:19:25.948Z,18.90
2017-09-24T18:21:53.715Z,18.80
2017-09-24T18:24:21.364Z,18.80
2017-09-24T18:26:49.218Z,18.80
2017-09-24T18:29:16.981Z,18.80
2017-09-24T18:31:45.071Z,18.70
2017-09-24T18:34:12.691Z,18.70
2017-09-24T18:36:40.313Z,18.70
2017-09-24T18:39:08.732Z,18.70
2017-09-24T18:41:36.361Z,18.60
2017-09-24T18:44:04.784Z,18.60
2017-09-24T18:46:32.465Z,18.50
2017-09-24T18:49:00.116Z,18.50
2017-09-24T18:51:27.740Z,18.50
2017-09-24T18:53:55.433Z,18.50
2017-09-24T18:56:23.066Z,18.50
2017-09-24T18:58:50.726Z,18.40
2017-09-24T19:01:19.170Z,18.40
2017-09-24T19:03:46.834Z,18.30
2017-09-24T19:06:14.460Z,18.40
2017-09-24T19:08:42.080Z,18.30
2017-09-24T19:11:10.531Z,18.20
2017-09-24T19:13:39.678Z,18.10
2017-09-24T19:16:08.341Z,18.10
2017-09-24T19:18:36.720Z,18.10
2017-09-24T19:21:05.141Z,18.10
2017-09-24T19:23:32.917Z,18.10
2017-09-24T19:26:00.697Z,18.10
2017-09-24T19:28:28.329Z,18.10
2017-09-24T19:30:56.031Z,18.00
2017-09-24T19:33:24.445Z,18.00
2017-09-24T19:35:52.869Z,17.90
2017-09-24T19:38:20.657Z,17.90
2017-09-24T19:40:48.394Z,17.90
2017-09-24T19:43:16.021Z,17.90
2017-09-24T19:45:43.826Z,17.80
2017-09-24T19:48:11.589Z,17.80
2017-09-24T19:50:39.257Z,17.80
2017-09-24T19:53:06.899Z,17.80
2017-09-24T19:55:34.570Z,17.80
2017-09-24T19:58:02.259Z,17.70
2017-09-24T20:00:29.927Z,17.70
2017-09-24T20:02:57.576Z,17.70
2017-09-24T20:05:25.232Z,17.70
2017-09-24T20:07:52.868Z,17.60
2017-09-24T20:10:20.581Z,17.60
2017-09-24T20:12:49.016Z,17.60
2017-09-24T20:15:16.639Z,17.50
2017-09-24T20:17:45.052Z,17.50
2017-09-24T20:20:12.697Z,17.50
2017-09-24T20:22:40.343Z,17.50
2017-09-24T20:25:09.019Z,17.50
2017-09-24T20:27:37.451Z,17.40
2017-09-24T20:30:05.092Z,17.40
2017-09-24T20:32:32.713Z,17.40
2017-09-24T20:35:01.131Z,17.40
2017-09-24T20:37:28.768Z,17.40
2017-09-24T20:39:57.190Z,17.30
2017-09-24T20:42:24.808Z,17.30
2017-09-24T20:44:52.473Z,17.30
2017-09-24T20:47:20.868Z,17.30
2017-09-24T20:49:48.537Z,17.30
2017-09-24T20:52:16.176Z,17.30
2017-09-24T20:54:44.605Z,17.30
2017-09-24T20:57:12.249Z,17.20
2017-09-24T20:59:39.887Z,17.30
2017-09-24T21:02:07.550Z,17.30
2017-09-24T21:04:35.194Z,17.30
2017-09-24T21:07:03.630Z,17.30
2017-09-24T21:09:32.021Z,17.30
2017-09-24T21:11:59.687Z,17.30
2017-09-24T21:14:27.431Z,17.30
2017-09-24T21:16:55.860Z,17.30
2017-09-24T21:19:24.273Z,17.30
2017-09-24T21:21:51.947Z,17.30
2017-09-24T21:24:19.579Z,17.30
2017-09-24T21:26:47.212Z,17.30
2017-09-24T21:29:15.676Z,17.30
2017-09-24T21:31:43.309Z,17.30
2017-09-24T21:34:10.973Z,17.30
2017-09-24T21:36:38.616Z,17.30
2017-09-24T21:39:06.255Z,17.30
2017-09-24T21:41:34.674Z,17.30
2017-09-24T21:44:02.294Z,17.30
2017-09-24T21:46:30.723Z,17.30
2017-09-24T21:48:58.345Z,17.20
2017-09-24T21:51:25.989Z,17.30
2017-09-24T21:53:54.401Z,17.20
2017-09-24T21:56:22.078Z,17.20
2017-09-24T21:58:49.699Z,17.20
2017-09-24T22:01:18.137Z,17.20
2017-09-24T22:03:45.789Z,17.10
2017-09-24T22:06:13.418Z,17.20
2017-09-24T22:08:41.086Z,17.20
2017-09-24T22:11:08.722Z,17.10
2017-09-24T22:13:37.155Z,17.10
2017-09-24T22:16:04.789Z,17.10
2017-09-24T22:18:32.463Z,17.10
2017-09-24T22:21:00.088Z,17.10
2017-09-24T22:23:30.814Z,17.10
2017-09-24T22:25:58.611Z,17.00
2017-09-24T22:28:26.280Z,17.10
2017-09-24T22:30:53.945Z,17.10
2017-09-24T22:33:21.581Z,17.10
2017-09-24T22:35:49.318Z,17.10
2017-09-24T22:38:17.046Z,17.10
2017-09-24T22:40:44.715Z,17.10
2017-09-24T22:43:12.505Z,17.10
2017-09-24T22:45:40.165Z,17.10
2017-09-24T22:48:09.435Z,17.10
2017-09-24T22:50:37.090Z,17.10
2017-09-24T22:53:04.755Z,17.10
2017-09-24T22:55:32.417Z,17.10
2017-09-24T22:58:00.102Z,17.10
2017-09-24T23:00:27.743Z,17.20
2017-09-24T23:02:55.432Z,17.10
2017-09-24T23:05:23.084Z,17.10
2017-09-24T23:07:50.713Z,17.10
2017-09-24T23:10:18.388Z,17.20
2017-09-24T23:12:46.078Z,17.10
2017-09-24T23:15:13.838Z,17.20
2017-09-24T23:17:41.476Z,17.10
2017-09-24T23:20:09.106Z,17.10
2017-09-24T23:22:37.607Z,17.10
2017-09-24T23:25:05.255Z,17.10
2017-09-24T23:27:32.913Z,17.10
2017-09-24T23:30:00.609Z,17.10
2017-09-24T23:32:28.244Z,17.10
2017-09-24T23:34:55.954Z,17.10
2017-09-24T23:37:23.585Z,17.10
2017-09-24T23:39:51.255Z,17.10
2017-09-24T23:42:18.885Z,17.00
2017-09-24T23:44:46.603Z,17.00
2017-09-24T23:47:14.265Z,17.00
2017-09-24T23:49:41.914Z,17.00
2017-09-24T23:52:09.801Z,17.00
2017-09-24T23:54:37.438Z,17.10
2017-09-24T23:57:05.086Z,17.10
2017-09-24T23:59:32.755Z,17.10
